createdAt,value
2023-03-10T00:05:15.473Z,80.80
2023-03-10T00:09:05.010Z,87.90
2023-03-10T00:16:54.261Z,80.80
2023-03-10T00:27:21.626Z,83.90
2023-03-10T00:32:16.251Z,83.90
2023-03-10T00:40:24.189Z,91.60
2023-03-10T00:43:42.286Z,85.30
2023-03-10T00:47:20.463Z,81.50
2023-03-10T00:51:07.753Z,91.30
2023-03-10T00:54:56.784Z,82.50
2023-03-10T00:58:44.817Z,91.50
2023-03-10T01:02:22.281Z,86.70
2023-03-10T01:05:44.860Z,86.20
2023-03-10T01:09:52.808Z,88.50
2023-03-10T01:13:42.772Z,89.70
2023-03-10T01:17:56.938Z,86.40
2023-03-10T01:26:18.590Z,88.20
2023-03-10T01:30:26.335Z,86.30
2023-03-10T01:34:39.516Z,93.90
2023-03-10T01:38:48.907Z,89.60
2023-03-10T01:43:16.232Z,89.10
2023-03-10T01:51:25.923Z,94.30
2023-03-10T02:00:03.335Z,97.50
2023-03-10T02:03:56.925Z,87.00
2023-03-10T02:07:39.771Z,94.90
2023-03-10T02:15:51.499Z,91.90
2023-03-10T02:19:39.057Z,86.30
2023-03-10T02:23:22.714Z,95.70
2023-03-10T02:27:19.728Z,96.10
2023-03-10T02:31:11.061Z,100.50
2023-03-10T02:38:26.828Z,99.00
2023-03-10T02:50:06.876Z,98.00
2023-03-10T02:54:00.847Z,96.30
2023-03-10T03:09:09.199Z,107.30
2023-03-10T04:05:24.548Z,93.90
2023-03-10T04:24:00.500Z,107.30
2023-03-10T04:43:05.391Z,96.50
2023-03-10T04:47:58.990Z,99.00
2023-03-10T04:52:28.188Z,103.50
2023-03-10T07:20:26.561Z,94.10
2023-03-10T07:35:25.039Z,123.50
2023-03-10T07:40:08.813Z,120.10
2023-03-10T07:44:16.393Z,117.90
2023-03-10T07:48:40.507Z,105.00
2023-03-10T07:52:39.353Z,113.40
2023-03-10T08:02:34.774Z,74.10
2023-03-10T08:18:48.292Z,22.10
2023-03-10T08:22:22.627Z,22.90
2023-03-10T08:25:56.801Z,16.40
2023-03-10T08:44:30.590Z,9.60
2023-03-10T08:53:10.362Z,15.00
2023-03-10T08:57:05.638Z,13.10
2023-03-10T09:00:32.564Z,13.60
2023-03-10T09:05:11.939Z,13.40
2023-03-10T09:09:49.168Z,13.60
2023-03-10T09:18:19.847Z,13.90
2023-03-10T09:21:45.645Z,13.80
2023-03-10T09:29:00.263Z,14.50
2023-03-10T09:32:47.932Z,13.50
2023-03-10T09:42:02.240Z,14.90
2023-03-10T09:45:56.819Z,15.20
2023-03-10T09:49:37.195Z,11.90
2023-03-10T10:01:41.170Z,14.50
2023-03-10T10:05:55.609Z,11.80
2023-03-10T10:18:16.216Z,17.20
2023-03-10T10:22:26.311Z,12.90
2023-03-10T10:26:16.891Z,10.10
2023-03-10T10:34:28.013Z,7.00
2023-03-10T10:37:51.970Z,7.50
2023-03-10T10:41:48.386Z,7.70
2023-03-10T10:45:35.847Z,4.30
2023-03-10T10:49:23.574Z,6.00
2023-03-10T10:53:07.922Z,6.40
2023-03-10T10:56:58.190Z,6.40
2023-03-10T11:00:26.859Z,5.00
2023-03-10T11:04:23.862Z,7.10
2023-03-10T11:12:17.607Z,5.30
2023-03-10T11:16:34.020Z,5.80
2023-03-10T11:20:18.391Z,3.70
2023-03-10T11:27:27.710Z,4.90
2023-03-10T11:30:51.447Z,5.10
2023-03-10T11:34:20.681Z,5.10
2023-03-10T11:38:09.720Z,6.10
2023-03-10T11:45:33.811Z,5.80
2023-03-10T11:49:47.075Z,4.70
2023-03-10T11:53:34.658Z,5.00
2023-03-10T11:57:14.963Z,4.20
2023-03-10T12:00:58.864Z,5.00
2023-03-10T12:04:42.645Z,3.10
2023-03-10T12:08:18.960Z,4.80
2023-03-10T12:12:03.082Z,4.60
2023-03-10T12:15:53.884Z,5.30
2023-03-10T12:19:16.639Z,4.60
2023-03-10T12:26:53.982Z,4.60
2023-03-10T12:31:02.153Z,3.90
2023-03-10T12:34:54.249Z,3.60
2023-03-10T12:39:19.200Z,3.70
2023-03-10T12:43:29.726Z,3.20
2023-03-10T12:47:48.529Z,3.70
2023-03-10T12:51:42.228Z,4.80
2023-03-10T12:59:26.258Z,4.20
2023-03-10T13:03:16.261Z,3.60
2023-03-10T13:06:42.832Z,5.40
2023-03-10T13:10:53.279Z,5.40
2023-03-10T13:15:24.981Z,6.60
2023-03-10T13:23:32.617Z,6.10
2023-03-10T13:27:16.863Z,5.80
2023-03-10T13:31:36.288Z,8.70
2023-03-10T13:35:22.070Z,6.90
2023-03-10T13:38:55.449Z,9.00
2023-03-10T13:42:44.773Z,9.70
2023-03-10T13:46:35.977Z,9.90
2023-03-10T13:50:39.835Z,17.10
2023-03-10T13:54:29.100Z,17.40
2023-03-10T13:58:13.848Z,12.50
2023-03-10T14:06:21.596Z,12.00
2023-03-10T14:10:51.896Z,11.70
2023-03-10T14:14:21.185Z,14.70
2023-03-10T14:17:41.322Z,12.00
2023-03-10T14:21:30.030Z,13.70
2023-03-10T14:25:51.532Z,11.70
2023-03-10T14:30:10.501Z,13.20
2023-03-10T14:34:21.063Z,8.00
2023-03-10T14:38:14.068Z,6.50
2023-03-10T14:42:04.348Z,3.20
2023-03-10T14:46:14.852Z,4.30
2023-03-10T14:50:44.616Z,4.30
2023-03-10T14:54:57.041Z,6.90
2023-03-10T14:59:16.894Z,6.90
2023-03-10T15:03:26.546Z,9.10
2023-03-10T15:07:58.474Z,7.40
2023-03-10T15:12:08.982Z,8.00
2023-03-10T15:17:08.182Z,6.40
2023-03-10T15:20:35.597Z,9.30
2023-03-10T15:24:46.875Z,8.50
2023-03-10T15:28:44.966Z,10.60
2023-03-10T15:32:55.778Z,8.80
2023-03-10T15:37:03.686Z,9.30
2023-03-10T15:40:45.756Z,8.80
2023-03-10T15:44:41.135Z,8.90
2023-03-10T15:48:33.414Z,9.60
2023-03-10T15:52:25.132Z,11.80
2023-03-10T15:56:34.826Z,9.40
2023-03-10T16:00:18.827Z,10.20
2023-03-10T16:04:08.707Z,10.70
2023-03-10T16:08:10.421Z,9.60
2023-03-10T16:11:59.994Z,13.40
2023-03-10T16:15:53.503Z,9.70
2023-03-10T16:19:41.296Z,12.20
2023-03-10T16:23:31.510Z,13.80
2023-03-10T16:27:20.824Z,13.20
2023-03-10T16:31:21.534Z,12.10
2023-03-10T16:35:14.038Z,13.50
2023-03-10T16:39:39.152Z,16.00
2023-03-10T16:43:21.313Z,13.60
2023-03-10T16:47:13.110Z,19.60
2023-03-10T16:50:36.128Z,21.10
2023-03-10T16:53:58.403Z,24.50
2023-03-10T16:57:59.225Z,25.90
2023-03-10T17:01:59.979Z,29.30
2023-03-10T17:05:43.974Z,26.10
2023-03-10T17:10:08.391Z,24.90
2023-03-10T17:13:51.652Z,23.30
2023-03-10T17:17:48.522Z,18.40
2023-03-10T17:26:01.366Z,58.60
2023-03-10T17:30:23.719Z,110.00
2023-03-10T17:34:33.330Z,301.10
2023-03-10T17:38:38.741Z,122.40
2023-03-10T17:42:32.676Z,78.70
2023-03-10T17:46:24.713Z,78.90
2023-03-10T17:50:12.640Z,39.80
2023-03-10T17:54:01.271Z,45.60
2023-03-10T17:57:49.795Z,49.30
2023-03-10T18:01:38.557Z,44.30
2023-03-10T18:05:34.607Z,54.40
2023-03-10T18:09:23.907Z,102.00
2023-03-10T18:13:09.242Z,100.40
2023-03-10T18:17:40.011Z,102.70
2023-03-10T18:21:54.387Z,119.70
2023-03-10T18:26:00.590Z,75.50
2023-03-10T18:29:25.028Z,62.60
2023-03-10T18:32:46.819Z,63.70
2023-03-10T18:36:57.357Z,61.60
2023-03-10T18:41:09.773Z,65.90
2023-03-10T18:45:13.647Z,68.80
2023-03-10T18:49:46.507Z,82.30
2023-03-10T18:57:15.101Z,120.80
2023-03-10T19:01:03.047Z,43.00
2023-03-10T19:04:48.269Z,79.70
2023-03-10T19:08:31.948Z,25.90
2023-03-10T19:16:38.898Z,17.00
2023-03-10T19:20:29.496Z,19.00
2023-03-10T19:24:21.970Z,18.50
2023-03-10T19:28:13.240Z,21.70
2023-03-10T19:32:00.364Z,25.40
2023-03-10T19:40:19.177Z,46.50
2023-03-10T19:44:49.873Z,44.70
2023-03-10T19:48:48.178Z,45.40
2023-03-10T19:53:07.821Z,36.90
2023-03-10T19:56:54.456Z,40.10
2023-03-10T20:00:53.118Z,32.80
2023-03-10T20:04:41.072Z,40.70
2023-03-10T20:08:24.864Z,34.40
2023-03-10T20:12:25.041Z,33.90
2023-03-10T20:16:54.765Z,32.60
2023-03-10T20:21:24.349Z,32.40
2023-03-10T20:25:53.484Z,28.80
2023-03-10T20:30:22.056Z,35.90
2023-03-10T20:34:51.391Z,36.70
2023-03-10T20:38:57.265Z,34.20
2023-03-10T20:43:00.281Z,40.00
2023-03-10T20:46:50.724Z,38.80
2023-03-10T20:55:07.517Z,34.50
2023-03-10T20:59:02.261Z,30.30
2023-03-10T21:03:00.610Z,26.60
2023-03-10T21:06:52.856Z,25.80
2023-03-10T21:10:49.651Z,24.40
2023-03-10T21:16:08.678Z,25.70
2023-03-10T21:19:29.938Z,23.20
2023-03-10T21:22:48.268Z,28.00
2023-03-10T21:26:43.009Z,21.70
2023-03-10T21:30:30.941Z,19.50
2023-03-10T21:34:19.601Z,15.80
2023-03-10T21:38:07.994Z,12.70
2023-03-10T21:41:31.117Z,12.80
2023-03-10T21:45:16.130Z,13.10
2023-03-10T21:52:55.597Z,10.90
2023-03-10T21:56:43.803Z,9.60
2023-03-10T22:00:12.846Z,12.40
2023-03-10T22:04:36.290Z,11.60
2023-03-10T22:08:50.522Z,13.80
2023-03-10T22:16:40.457Z,11.50
2023-03-10T22:20:28.570Z,14.30
2023-03-10T22:28:03.413Z,12.00
2023-03-10T22:31:44.445Z,13.20
2023-03-10T22:39:38.400Z,13.50
2023-03-10T22:43:26.491Z,11.20
2023-03-10T22:46:42.182Z,13.80
2023-03-10T22:50:29.873Z,11.50
2023-03-10T22:53:59.439Z,10.70
2023-03-10T22:57:23.379Z,13.80
2023-03-10T23:00:44.537Z,12.80
2023-03-10T23:04:32.436Z,11.70
2023-03-10T23:08:20.209Z,12.40
2023-03-10T23:12:10.896Z,13.60
2023-03-10T23:15:44.682Z,11.20
2023-03-10T23:19:45.998Z,12.90
2023-03-10T23:23:33.752Z,12.00
2023-03-10T23:27:22.656Z,17.40
2023-03-10T23:31:09.258Z,15.10
2023-03-10T23:34:56.949Z,15.00
2023-03-10T23:38:44.585Z,16.70
2023-03-10T23:42:31.225Z,16.60
2023-03-10T23:46:18.927Z,15.60
2023-03-10T23:50:06.889Z,14.70
2023-03-10T23:53:29.572Z,17.00
2023-03-10T23:57:59.041Z,14.10
